Time;durP1;ratioP1;P1;durP2;ratioP2;P2;SDS_P1;SDS_P2;PMS_P1;PMS_P2;Temp;Humidity;BMP_temperature;BMP_pressure;BME280_temperature;BME280_humidity;BME280_pressure;Samples;Min_cycle;Max_cycle;Signal;HPM_P1;HPM_P2
2021/08/14 00:00:22;;;;;;;23.00;3.97;;;;;;;16.32;66.24;101234.50;5063547;28;20045;-89
2021/08/14 00:02:49;;;;;;;8.10;2.20;;;;;;;16.28;66.13;101245.59;5066391;28;20116;-89
2021/08/14 00:05:17;;;;;;;11.13;2.22;;;;;;;16.15;66.74;101235.78;5047865;28;20119;-89
2021/08/14 00:07:43;;;;;;;9.77;2.90;;;;;;;16.11;66.86;101240.50;5048005;28;20045;-89
2021/08/14 00:10:11;;;;;;;9.55;2.85;;;;;;;16.10;67.09;101240.84;5066007;28;20109;-89
2021/08/14 00:12:37;;;;;;;8.82;2.80;;;;;;;16.11;67.03;101231.31;5047701;28;20056;-89
2021/08/14 00:15:05;;;;;;;14.85;2.75;;;;;;;16.06;67.37;101226.84;5047905;28;21549;-89
2021/08/14 00:17:32;;;;;;;9.82;2.45;;;;;;;16.05;67.68;101224.41;5064439;28;20123;-90
2021/08/14 00:19:59;;;;;;;13.60;3.30;;;;;;;16.02;67.59;101231.53;5046750;28;20040;-89
2021/08/14 00:22:25;;;;;;;17.92;3.50;;;;;;;16.05;67.56;101225.22;5050771;28;20055;-89
2021/08/14 00:24:52;;;;;;;13.27;4.32;;;;;;;16.03;67.80;101233.16;5031938;28;20074;-89
2021/08/14 00:27:23;;;;;;;8.77;3.00;;;;;;;16.06;67.75;101229.63;5048666;28;20047;-90
2021/08/14 00:29:49;;;;;;;8.70;2.92;;;;;;;16.03;67.87;101224.78;5065196;28;20040;-89
2021/08/14 00:32:16;;;;;;;15.13;2.92;;;;;;;16.04;67.86;101234.78;5065684;28;20046;-89
2021/08/14 00:34:43;;;;;;;10.60;2.40;;;;;;;16.04;67.87;101225.59;5048503;28;20072;-89
2021/08/14 00:37:10;;;;;;;7.47;2.60;;;;;;;16.02;68.02;101228.75;5032362;28;20040;-89
2021/08/14 00:39:37;;;;;;;10.68;2.35;;;;;;;16.07;67.80;101217.28;5047839;28;20036;-90
2021/08/14 00:42:04;;;;;;;10.20;4.20;;;;;;;16.04;67.84;101218.03;5065749;28;20041;-89
2021/08/14 00:44:34;;;;;;;10.27;3.13;;;;;;;16.01;67.81;101217.97;5049883;28;20055;-89
2021/08/14 00:47:05;;;;;;;5.57;2.90;;;;;;;15.99;68.33;101212.72;5063488;28;20824;-89
2021/08/14 00:49:32;;;;;;;13.23;3.92;;;;;;;16.05;67.92;101216.03;5047112;28;20047;-89
2021/08/14 00:52:00;;;;;;;11.32;2.28;;;;;;;16.06;67.79;101212.06;5047681;28;20106;-89
2021/08/14 00:54:27;;;;;;;13.23;2.92;;;;;;;16.04;67.96;101223.63;5047513;28;20044;-89
2021/08/14 00:56:56;;;;;;;13.05;3.92;;;;;;;16.01;67.87;101207.59;5025832;28;20052;-88
2021/08/14 00:59:28;;;;;;;7.57;2.90;;;;;;;16.01;68.15;101218.78;5064669;28;20037;-88
2021/08/14 01:01:59;;;;;;;9.77;2.65;;;;;;;16.01;67.99;101220.75;5064244;28;20119;-88
2021/08/14 01:04:28;;;;;;;15.63;3.03;;;;;;;15.99;68.21;101218.31;5047431;28;20078;-88
2021/08/14 01:06:56;;;;;;;8.68;3.13;;;;;;;15.94;68.35;101227.00;5045665;28;20147;-89
2021/08/14 01:09:23;;;;;;;11.82;2.85;;;;;;;15.94;68.22;101213.03;5030903;28;20223;-89
2021/08/14 01:11:50;;;;;;;15.77;3.15;;;;;;;15.87;68.61;101215.69;5047680;28;20044;-89
2021/08/14 01:14:17;;;;;;;8.27;2.63;;;;;;;15.85;68.51;101206.91;5048522;28;20066;-89
2021/08/14 01:16:44;;;;;;;10.07;2.88;;;;;;;15.84;68.56;101213.66;5045516;28;20035;-89
2021/08/14 01:19:11;;;;;;;11.63;3.45;;;;;;;15.76;68.88;101212.69;5030598;28;20048;-88
2021/08/14 01:21:45;;;;;;;10.02;2.72;;;;;;;15.73;68.93;101212.63;5047843;28;20046;-89
2021/08/14 01:24:12;;;;;;;11.05;3.35;;;;;;;15.76;68.98;101211.88;5058533;28;20037;-89
2021/08/14 01:26:44;;;;;;;12.50;3.60;;;;;;;15.73;69.38;101213.44;5046007;28;20044;-87
2021/08/14 01:29:11;;;;;;;12.65;2.90;;;;;;;15.70;69.26;101213.38;5063867;28;20040;-88
2021/08/14 01:31:39;;;;;;;12.77;2.80;;;;;;;15.71;69.00;101214.97;5046910;28;20055;-89
2021/08/14 01:34:06;;;;;;;12.35;2.90;;;;;;;15.72;69.10;101216.59;5064138;28;20040;-88
2021/08/14 01:36:33;;;;;;;18.75;3.55;;;;;;;15.64;69.48;101221.25;5046938;28;20043;-88
2021/08/14 01:39:04;;;;;;;10.68;3.03;;;;;;;15.61;69.55;101221.16;5029823;28;20131;-88
2021/08/14 01:41:31;;;;;;;11.30;3.88;;;;;;;15.60;69.73;101213.94;5063474;28;20029;-89
2021/08/14 01:44:04;;;;;;;10.75;3.28;;;;;;;15.60;69.54;101216.75;5062928;28;20051;-88
2021/08/14 01:46:41;;;;;;;7.40;3.15;;;;;;;15.56;69.80;101219.47;5047104;28;20135;-88
2021/08/14 01:49:08;;;;;;;10.35;3.08;;;;;;;15.56;69.74;101219.47;5059510;28;20131;-88
2021/08/14 01:51:36;;;;;;;8.70;2.42;;;;;;;15.59;69.69;101217.94;5047975;28;20904;-89
2021/08/14 01:54:04;;;;;;;13.77;3.25;;;;;;;15.53;69.71;101219.41;5047421;28;20037;-88
2021/08/14 01:56:32;;;;;;;14.70;3.42;;;;;;;15.54;69.92;101221.03;5040964;28;20051;-88
2021/08/14 01:59:00;;;;;;;9.30;3.40;;;;;;;15.52;69.97;101223.34;5046281;28;20040;-89
2021/08/14 02:01:28;;;;;;;10.73;3.15;;;;;;;15.54;70.12;101221.03;5062734;28;20072;-88
2021/08/14 02:03:56;;;;;;;11.07;3.08;;;;;;;15.54;69.74;101215.44;5068244;28;20044;-88
2021/08/14 02:06:24;;;;;;;14.25;3.67;;;;;;;15.56;69.98;101210.28;5049259;28;20045;-88
2021/08/14 02:08:51;;;;;;;9.13;2.95;;;;;;;15.53;69.97;101214.63;5050502;28;20063;-88
2021/08/14 02:11:22;;;;;;;12.25;3.17;;;;;;;15.47;70.39;101210.50;5066028;28;20074;-88
2021/08/14 02:13:50;;;;;;;15.63;2.88;;;;;;;15.45;70.24;101204.47;5049862;28;20054;-89
2021/08/14 02:16:18;;;;;;;9.70;2.63;;;;;;;15.43;70.33;101200.44;5065900;28;20046;-89
2021/08/14 02:18:45;;;;;;;12.98;3.88;;;;;;;15.38;70.59;101201.50;5048399;28;20036;-89
2021/08/14 02:21:12;;;;;;;9.40;2.92;;;;;;;15.38;70.49;101195.13;5067485;28;20040;-88
2021/08/14 02:23:39;;;;;;;17.15;3.40;;;;;;;15.40;70.57;101204.75;5033476;28;20475;-89
2021/08/14 02:26:07;;;;;;;9.23;2.58;;;;;;;15.37;70.55;101199.91;5067303;28;20055;-88
2021/08/14 02:28:34;;;;;;;10.88;3.80;;;;;;;15.38;70.43;101206.31;5067413;28;20051;-89
2021/08/14 02:31:03;;;;;;;9.38;3.20;;;;;;;15.39;70.69;101196.72;5066898;28;20032;-88
2021/08/14 02:33:30;;;;;;;13.10;2.58;;;;;;;15.37;70.75;101199.09;5050806;28;20488;-88
2021/08/14 02:35:57;;;;;;;8.23;2.92;;;;;;;15.37;70.83;101208.28;5032009;28;20106;-88
2021/08/14 02:38:24;;;;;;;10.27;3.85;;;;;;;15.37;70.67;101204.69;5051245;28;20072;-88
2021/08/14 02:40:51;;;;;;;12.32;3.75;;;;;;;15.34;70.80;101213.78;5048537;28;20494;-89
2021/08/14 02:43:18;;;;;;;14.23;4.13;;;;;;;15.33;70.79;101206.59;5050487;28;20404;-88
2021/08/14 02:45:46;;;;;;;15.75;4.70;;;;;;;15.33;70.76;101209.38;5032151;28;20048;-88
2021/08/14 02:48:14;;;;;;;19.88;4.82;;;;;;;15.27;71.00;101206.84;5047629;28;20506;-88
2021/08/14 02:50:42;;;;;;;7.82;3.00;;;;;;;15.27;71.00;101206.06;5064432;28;20090;-88
2021/08/14 02:53:09;;;;;;;7.95;3.63;;;;;;;15.26;71.12;101204.44;5050773;28;20071;-88
2021/08/14 02:55:36;;;;;;;11.65;3.10;;;;;;;15.27;71.01;101194.91;5049293;28;20059;-88
2021/08/14 02:58:03;;;;;;;12.52;2.70;;;;;;;15.27;71.18;101201.28;5067177;28;20055;-88
2021/08/14 03:00:30;;;;;;;12.52;3.65;;;;;;;15.27;71.02;101194.09;5066116;28;20047;-88
2021/08/14 03:02:57;;;;;;;15.18;2.92;;;;;;;15.27;70.89;101182.94;5044732;28;20044;-89
2021/08/14 03:05:25;;;;;;;10.60;3.97;;;;;;;15.31;71.11;101189.38;5065187;28;20052;-88
2021/08/14 03:07:52;;;;;;;10.43;3.42;;;;;;;15.27;70.75;101180.16;5049449;28;20049;-88
2021/08/14 03:10:19;;;;;;;10.90;3.30;;;;;;;15.22;71.02;101187.63;5049226;28;20090;-88
2021/08/14 03:12:45;;;;;;;12.52;3.15;;;;;;;15.17;71.26;101182.34;5067256;28;20052;-88
2021/08/14 03:15:12;;;;;;;14.35;2.80;;;;;;;15.13;71.89;101189.03;5065820;28;20596;-88
2021/08/14 03:17:40;;;;;;;15.75;3.10;;;;;;;15.09;71.47;101188.94;5050250;28;20072;-88
2021/08/14 03:20:08;;;;;;;8.85;2.83;;;;;;;15.09;71.70;101208.44;5047438;28;20052;-88
2021/08/14 03:22:35;;;;;;;13.77;2.90;;;;;;;15.11;71.54;101206.13;5049788;28;20037;-86
2021/08/14 03:25:03;;;;;;;12.82;3.65;;;;;;;15.11;71.62;101199.75;5049572;28;20052;-88
2021/08/14 03:27:30;;;;;;;11.25;3.15;;;;;;;15.13;71.44;101205.75;5031654;28;20072;-87
2021/08/14 03:29:57;;;;;;;11.90;3.45;;;;;;;15.14;71.60;101204.59;5049778;28;20037;-88
2021/08/14 03:32:24;;;;;;;14.77;3.20;;;;;;;15.14;71.56;101213.75;5062609;28;20047;-88
2021/08/14 03:34:50;;;;;;;15.65;3.95;;;;;;;15.14;71.57;101199.78;5046720;28;20476;-88
2021/08/14 03:37:17;;;;;;;13.25;3.00;;;;;;;15.11;71.59;101197.75;5065980;28;20077;-89
2021/08/14 03:39:44;;;;;;;8.05;3.10;;;;;;;15.08;71.94;101206.84;5048693;28;20609;-88
2021/08/14 03:42:11;;;;;;;18.67;4.60;;;;;;;15.06;71.56;101198.03;5031714;28;20457;-88
2021/08/14 03:44:37;;;;;;;13.32;2.90;;;;;;;15.01;71.68;101192.72;5050366;28;20040;-89
2021/08/14 03:47:05;;;;;;;11.35;3.17;;;;;;;14.98;71.81;101199.06;5064310;28;20503;-88
2021/08/14 03:49:31;;;;;;;7.60;2.90;;;;;;;14.94;71.90;101198.16;5047512;28;20040;-88
2021/08/14 03:51:58;;;;;;;11.15;3.50;;;;;;;14.94;72.16;101203.72;5031651;28;20049;-88
2021/08/14 03:54:25;;;;;;;14.02;3.25;;;;;;;14.92;72.22;101196.91;5049592;28;20045;-88
2021/08/14 03:56:53;;;;;;;16.60;2.95;;;;;;;14.92;72.11;101203.28;5047604;28;20051;-88
2021/08/14 03:59:20;;;;;;;15.18;4.25;;;;;;;14.90;72.32;101188.91;5065244;28;20046;-88
2021/08/14 04:01:46;;;;;;;17.85;3.35;;;;;;;14.88;72.33;101196.81;5046324;28;20119;-88
2021/08/14 04:04:14;;;;;;;12.00;2.97;;;;;;;14.85;72.20;101194.75;5049285;28;20484;-90
2021/08/14 04:06:40;;;;;;;12.85;3.00;;;;;;;14.81;72.40;101196.66;5043401;28;20044;-88
2021/08/14 04:09:07;;;;;;;17.58;3.15;;;;;;;14.82;72.32;101201.06;5064567;28;20033;-88
2021/08/14 04:11:34;;;;;;;14.88;3.53;;;;;;;14.81;72.45;101193.06;5030095;28;20503;-88
2021/08/14 04:14:01;;;;;;;13.48;3.38;;;;;;;14.80;72.29;101192.25;5048981;28;20048;-88
2021/08/14 04:16:27;;;;;;;11.75;2.85;;;;;;;14.72;72.57;101201.59;5033257;28;20152;-87
2021/08/14 04:18:54;;;;;;;20.00;3.85;;;;;;;14.73;72.71;101197.66;5041919;28;20055;-88
2021/08/14 04:21:21;;;;;;;10.93;2.95;;;;;;;14.72;72.75;101196.03;5049619;28;20062;-88
2021/08/14 04:23:48;;;;;;;11.77;4.68;;;;;;;14.79;72.59;101203.78;5047603;28;20225;-89
2021/08/14 04:26:14;;;;;;;13.20;3.30;;;;;;;14.74;72.91;101201.25;5064250;28;20084;-87
2021/08/14 04:28:41;;;;;;;11.45;2.85;;;;;;;14.74;72.90;101199.28;5049618;28;20043;-88
2021/08/14 04:31:08;;;;;;;14.38;3.30;;;;;;;14.72;72.96;101190.47;5045415;28;20070;-87
2021/08/14 04:33:35;;;;;;;15.68;3.42;;;;;;;14.68;73.33;101202.69;5047565;28;20067;-87
2021/08/14 04:36:02;;;;;;;10.00;3.85;;;;;;;14.66;73.18;101194.72;5048761;28;20032;-88
2021/08/14 04:38:29;;;;;;;11.82;3.10;;;;;;;14.63;73.48;101201.00;5049101;28;20078;-86
2021/08/14 04:40:55;;;;;;;14.45;3.67;;;;;;;14.68;73.22;101206.31;5065733;28;20044;-88
2021/08/14 04:43:22;;;;;;;11.18;3.30;;;;;;;14.66;73.17;101202.25;5046995;28;20123;-87
2021/08/14 04:45:50;;;;;;;12.18;3.33;;;;;;;14.70;73.04;101203.13;5046956;28;20044;-87
2021/08/14 04:48:17;;;;;;;16.35;3.95;;;;;;;14.69;73.35;101207.94;5049211;28;20043;-87
2021/08/14 04:50:44;;;;;;;14.40;3.60;;;;;;;14.68;73.50;101205.50;5066171;28;20040;-88
2021/08/14 04:53:11;;;;;;;12.70;3.30;;;;;;;14.69;73.47;101201.53;5028811;28;20048;-88
2021/08/14 04:55:38;;;;;;;15.43;3.35;;;;;;;14.69;73.51;101213.50;5048618;28;21836;-88
2021/08/14 04:58:04;;;;;;;14.18;4.00;;;;;;;14.67;73.69;101212.25;5064316;28;20072;-88
2021/08/14 05:00:31;;;;;;;16.25;4.10;;;;;;;14.69;73.62;101210.72;5045787;28;20048;-88
2021/08/14 05:02:58;;;;;;;11.45;3.42;;;;;;;14.70;73.48;101208.72;5028136;28;20293;-87
2021/08/14 05:05:25;;;;;;;11.98;3.70;;;;;;;14.69;73.71;101212.69;5046982;28;20111;-87
2021/08/14 05:07:52;;;;;;;14.63;3.50;;;;;;;14.68;73.68;101216.63;5048577;28;20306;-88
2021/08/14 05:10:19;;;;;;;13.77;3.25;;;;;;;14.70;73.70;101215.09;5064898;28;20135;-88
2021/08/14 05:12:45;;;;;;;11.05;3.80;;;;;;;14.72;73.86;101218.34;5063801;28;20071;-88
2021/08/14 05:15:13;;;;;;;12.77;3.92;;;;;;;14.74;73.75;101220.78;5046210;28;20048;-88
2021/08/14 05:17:40;;;;;;;8.73;3.40;;;;;;;14.72;73.67;101218.34;5047281;28;20472;-87
2021/08/14 05:20:07;;;;;;;16.35;3.83;;;;;;;14.75;73.69;101217.63;5063792;28;20032;-87
2021/08/14 05:22:34;;;;;;;11.13;3.22;;;;;;;14.81;73.46;101216.16;5065785;28;20132;-88
2021/08/14 05:25:01;;;;;;;18.73;4.72;;;;;;;14.81;73.34;101212.56;5048563;28;20080;-87
2021/08/14 05:27:30;;;;;;;16.25;3.35;;;;;;;14.81;73.29;101210.59;5048984;28;20438;-87
2021/08/14 05:29:57;;;;;;;9.55;4.90;;;;;;;14.77;73.81;101204.16;5027768;28;20059;-86
2021/08/14 05:32:24;;;;;;;18.92;3.67;;;;;;;14.78;73.54;101208.53;5063636;28;20941;-88
2021/08/14 05:34:51;;;;;;;19.10;5.68;;;;;;;14.78;73.83;101213.28;5064550;28;20132;-88
2021/08/14 05:37:18;;;;;;;15.32;3.28;;;;;;;14.81;73.69;101210.59;5044517;28;20151;-87
2021/08/14 05:39:44;;;;;;;13.13;3.58;;;;;;;14.84;73.71;101217.44;5044910;28;20072;-89
2021/08/14 05:42:11;;;;;;;15.00;4.82;;;;;;;14.85;73.70;101214.25;5027871;28;20072;-87
2021/08/14 05:44:38;;;;;;;18.90;4.78;;;;;;;14.86;73.67;101218.69;5045979;28;20045;-88
2021/08/14 05:47:05;;;;;;;10.43;3.42;;;;;;;14.89;73.72;101217.97;5063019;28;20048;-88
2021/08/14 05:49:32;;;;;;;11.95;4.32;;;;;;;14.92;73.71;101224.78;5045042;28;20537;-88
2021/08/14 05:51:59;;;;;;;12.23;3.97;;;;;;;14.93;74.21;101224.41;5045704;28;20055;-87
2021/08/14 05:54:26;;;;;;;10.15;3.72;;;;;;;14.97;73.57;101222.53;5064979;28;20697;-88
2021/08/14 05:56:53;;;;;;;10.85;3.42;;;;;;;14.99;73.60;101225.75;5046540;28;20420;-87
2021/08/14 05:59:20;;;;;;;13.65;3.65;;;;;;;14.97;73.61;101222.53;5048125;28;20507;-88
2021/08/14 06:01:47;;;;;;;25.30;5.68;;;;;;;14.97;73.84;101218.94;5038674;28;20066;-88
2021/08/14 06:04:14;;;;;;;15.27;4.75;;;;;;;14.95;73.67;101216.50;5048400;28;20032;-88
2021/08/14 06:06:43;;;;;;;10.90;3.58;;;;;;;14.95;73.52;101210.94;5048150;28;21172;-88
2021/08/14 06:09:11;;;;;;;14.35;3.75;;;;;;;14.93;73.95;101227.19;5029549;28;20098;-88
2021/08/14 06:11:38;;;;;;;12.73;3.63;;;;;;;14.92;73.92;101228.38;5056876;28;20036;-88
2021/08/14 06:14:05;;;;;;;14.32;3.90;;;;;;;14.92;73.67;101233.16;5064666;28;20052;-88
2021/08/14 06:16:32;;;;;;;10.93;3.60;;;;;;;14.97;73.96;101235.66;5045712;28;20088;-87
2021/08/14 06:18:59;;;;;;;12.60;3.03;;;;;;;15.04;74.07;101235.81;5063075;28;20041;-88
2021/08/14 06:21:26;;;;;;;14.63;3.88;;;;;;;15.06;73.69;101233.50;5046811;28;20053;-88
2021/08/14 06:23:53;;;;;;;12.30;4.07;;;;;;;15.12;73.98;101237.59;5047894;28;20488;-87
2021/08/14 06:26:19;;;;;;;13.82;3.78;;;;;;;15.12;73.79;101227.25;5047103;28;20036;-87
2021/08/14 06:28:46;;;;;;;10.18;3.72;;;;;;;15.12;74.14;101220.84;5045859;28;20530;-88
2021/08/14 06:31:15;;;;;;;19.48;4.47;;;;;;;15.15;74.41;101234.91;5044242;28;20050;-88
2021/08/14 06:33:43;;;;;;;13.30;4.43;;;;;;;15.17;74.38;101235.31;5065068;28;20040;-88
2021/08/14 06:36:12;;;;;;;12.55;4.22;;;;;;;15.19;74.40;101234.97;5046436;28;20618;-88
2021/08/14 06:38:39;;;;;;;13.05;3.20;;;;;;;15.20;74.48;101234.59;5064959;28;20752;-89
2021/08/14 06:41:06;;;;;;;19.80;5.18;;;;;;;15.24;74.19;101234.69;5029833;28;20040;-88
2021/08/14 06:43:32;;;;;;;16.20;4.47;;;;;;;15.28;74.51;101246.72;5047209;28;20048;-88
2021/08/14 06:45:59;;;;;;;11.32;4.05;;;;;;;15.28;74.42;101235.56;5062769;28;20044;-88
2021/08/14 06:48:26;;;;;;;11.52;3.83;;;;;;;15.31;74.48;101228.44;5047047;28;20098;-87
2021/08/14 06:51:13;;;;;;;13.97;3.67;;;;;;;15.32;74.63;101230.88;5067559;28;20040;-87
2021/08/14 06:53:41;;;;;;;14.75;4.40;;;;;;;15.34;74.63;101224.94;5062215;28;20133;-85
2021/08/14 06:56:08;;;;;;;11.13;4.22;;;;;;;15.31;74.67;101222.88;5050403;28;20066;-88
2021/08/14 06:58:35;;;;;;;14.68;3.92;;;;;;;15.33;74.81;101221.31;5049773;28;20135;-88
2021/08/14 07:01:02;;;;;;;13.32;3.97;;;;;;;15.35;74.95;101237.72;5063755;28;20124;-88
2021/08/14 07:03:29;;;;;;;13.73;4.68;;;;;;;15.37;74.99;101224.19;5047859;28;20517;-85
2021/08/14 07:05:56;;;;;;;14.05;4.32;;;;;;;15.41;74.92;101227.91;5047709;28;20098;-86
2021/08/14 07:08:23;;;;;;;13.07;3.25;;;;;;;15.50;74.89;101234.09;5049418;28;20044;-88
2021/08/14 07:10:49;;;;;;;12.55;4.68;;;;;;;15.55;74.68;101240.19;5066389;28;20040;-87
2021/08/14 07:13:16;;;;;;;11.57;3.83;;;;;;;15.58;74.85;101233.06;5065369;28;20487;-88
2021/08/14 07:15:43;;;;;;;15.35;3.88;;;;;;;15.62;74.81;101236.75;5050656;28;20043;-88
2021/08/14 07:18:10;;;;;;;10.75;3.70;;;;;;;15.66;74.49;101240.41;5048845;28;20044;-86
2021/08/14 07:20:37;;;;;;;16.42;3.45;;;;;;;15.74;74.61;101242.16;5066593;28;20041;-87
2021/08/14 07:23:03;;;;;;;17.80;4.60;;;;;;;15.80;74.48;101237.91;5044332;28;20059;-86
2021/08/14 07:25:30;;;;;;;14.27;3.72;;;;;;;15.88;74.66;101231.28;5064618;28;20044;-87
2021/08/14 07:27:57;;;;;;;17.73;6.03;;;;;;;15.95;74.58;101248.19;5049771;28;20080;-87
2021/08/14 07:30:24;;;;;;;13.52;3.63;;;;;;;16.02;74.40;101239.13;5065641;28;20094;-86
2021/08/14 07:32:51;;;;;;;13.65;4.07;;;;;;;16.05;74.45;101238.38;5050644;28;20036;-87
2021/08/14 07:35:19;;;;;;;19.33;3.58;;;;;;;16.17;74.62;101244.63;5048766;28;20127;-86
2021/08/14 07:37:50;;;;;;;17.05;4.97;;;;;;;16.26;74.71;101234.00;5065964;28;20040;-86
2021/08/14 07:40:19;;;;;;;11.48;3.58;;;;;;;16.35;74.47;101239.34;5048629;28;20598;-88
2021/08/14 07:42:46;;;;;;;12.98;4.20;;;;;;;16.39;74.52;101241.00;5031812;28;20040;-89
2021/08/14 07:45:19;;;;;;;11.70;3.63;;;;;;;16.38;74.15;101244.19;5050271;28;20032;-82
2021/08/14 07:47:48;;;;;;;20.67;4.72;;;;;;;16.33;73.90;101248.13;5048811;28;20056;-86
2021/08/14 07:50:26;;;;;;;16.23;4.22;;;;;;;16.30;73.87;101251.66;5030807;28;20048;-86
2021/08/14 07:52:55;;;;;;;17.67;3.97;;;;;;;16.23;73.78;101245.13;5046022;28;20053;-87
2021/08/14 07:55:23;;;;;;;11.65;3.30;;;;;;;16.19;73.81;101247.84;5064866;28;20124;-88
2021/08/14 07:57:50;;;;;;;15.20;4.63;;;;;;;16.15;73.92;101249.75;5045720;28;20033;-87
2021/08/14 08:00:19;;;;;;;11.35;3.95;;;;;;;16.13;73.81;101254.91;5063797;28;20048;-88
2021/08/14 08:02:46;;;;;;;14.18;3.80;;;;;;;16.10;73.76;101246.44;5065197;28;20036;-87
2021/08/14 08:05:14;;;;;;;13.32;4.13;;;;;;;16.10;73.96;101244.47;5047234;28;20411;-87
2021/08/14 08:07:43;;;;;;;12.10;4.10;;;;;;;16.16;74.16;101250.56;5065531;28;20046;-85
2021/08/14 08:10:16;;;;;;;10.77;3.42;;;;;;;16.20;74.18;101245.88;5064019;28;20040;-85
2021/08/14 08:12:44;;;;;;;13.13;3.80;;;;;;;16.21;74.05;101239.91;5064735;28;20048;-87
2021/08/14 08:15:12;;;;;;;13.80;4.45;;;;;;;16.24;74.27;101235.53;5062335;28;20036;-90
2021/08/14 08:17:40;;;;;;;18.95;6.00;;;;;;;16.27;74.14;101244.00;5063380;28;20079;-86
2021/08/14 08:20:08;;;;;;;18.52;4.80;;;;;;;16.27;74.04;101227.25;5045940;28;20040;-88
2021/08/14 08:22:35;;;;;;;15.15;5.03;;;;;;;16.25;74.02;101235.19;5063758;28;20044;-86
2021/08/14 08:25:03;;;;;;;19.75;4.60;;;;;;;16.23;74.26;101243.13;5063192;28;20056;-84
2021/08/14 08:27:31;;;;;;;12.88;3.35;;;;;;;16.25;74.38;101235.19;5063535;28;20052;-86
2021/08/14 08:29:58;;;;;;;19.05;4.35;;;;;;;16.27;74.37;101237.59;5064043;28;20044;-85
2021/08/14 08:32:24;;;;;;;15.70;4.75;;;;;;;16.29;74.39;101236.03;5062078;28;20066;-88
2021/08/14 08:34:51;;;;;;;15.30;4.72;;;;;;;16.31;74.37;101247.66;5057520;28;20048;-87
2021/08/14 08:37:18;;;;;;;17.45;4.55;;;;;;;16.34;74.41;101232.94;5062873;28;20041;-85
2021/08/14 08:39:45;;;;;;;12.13;3.80;;;;;;;16.33;74.45;101256.50;5045461;28;20036;-86
2021/08/14 08:42:12;;;;;;;21.98;5.10;;;;;;;16.38;74.44;101250.59;5063436;28;20053;-87
2021/08/14 08:44:38;;;;;;;14.98;5.45;;;;;;;16.45;74.74;101255.50;5045065;28;20483;-86
2021/08/14 08:47:08;;;;;;;18.40;4.78;;;;;;;16.57;74.77;101262.91;5062189;28;20067;-87
2021/08/14 08:49:43;;;;;;;14.05;4.55;;;;;;;16.62;75.03;101259.81;5062251;28;20036;-86
2021/08/14 08:52:10;;;;;;;10.95;3.65;;;;;;;16.69;74.82;101259.91;5042552;28;20488;-88
2021/08/14 08:54:38;;;;;;;17.75;5.35;;;;;;;16.74;74.85;101256.81;5062111;28;20046;-85
2021/08/14 08:57:24;;;;;;;13.73;4.00;;;;;;;16.75;74.83;101259.25;5059697;28;20064;-87
2021/08/14 08:59:57;;;;;;;14.02;4.20;;;;;;;16.82;75.01;101261.34;5045478;28;20036;-87
2021/08/14 09:02:30;;;;;;;11.80;3.83;;;;;;;16.86;75.01;101256.63;5064448;28;20143;-87
2021/08/14 09:05:12;;;;;;;14.73;4.15;;;;;;;16.83;75.08;101243.38;5044670;28;20052;-86
2021/08/14 09:07:43;;;;;;;17.60;5.00;;;;;;;16.86;74.98;101237.03;5045816;28;22056;-86
2021/08/14 09:10:19;;;;;;;12.57;4.40;;;;;;;16.87;75.16;101238.63;5045675;28;20047;-87
2021/08/14 09:12:46;;;;;;;12.27;4.22;;;;;;;16.91;75.21;101233.91;5058403;28;20058;-87
2021/08/14 09:15:27;;;;;;;13.05;4.70;;;;;;;16.96;75.38;101233.59;5064253;28;20051;-87
2021/08/14 09:18:00;;;;;;;9.57;3.97;;;;;;;17.03;75.36;101239.28;5061839;28;21853;-85
2021/08/14 09:20:28;;;;;;;11.00;4.78;;;;;;;17.08;75.17;101227.78;5064421;28;20040;-88
2021/08/14 09:23:06;;;;;;;11.73;4.38;;;;;;;17.11;75.09;101232.63;5063857;28;20048;-87
2021/08/14 09:25:40;;;;;;;14.82;4.00;;;;;;;17.17;75.24;101230.31;5047392;28;20040;-88
2021/08/14 09:28:09;;;;;;;15.40;4.43;;;;;;;17.21;75.13;101240.34;5062184;28;20890;-86
2021/08/14 09:30:57;;;;;;;32.40;6.93;;;;;;;17.28;75.08;101229.28;5042171;28;20041;-88
2021/08/14 09:33:29;;;;;;;14.70;4.63;;;;;;;17.33;75.09;101231.75;5063065;28;20512;-85
2021/08/14 09:36:07;;;;;;;12.75;3.72;;;;;;;17.40;74.89;101231.84;5062275;28;20064;-87
2021/08/14 09:38:49;;;;;;;16.85;4.55;;;;;;;17.45;74.22;101237.09;5062673;28;20040;-87
2021/08/14 09:41:18;;;;;;;13.98;4.63;;;;;;;17.47;74.44;101248.72;5043555;28;20516;-84
2021/08/14 09:43:46;;;;;;;12.05;4.63;;;;;;;17.49;74.64;101237.16;5060901;28;20044;-87
2021/08/14 09:46:13;;;;;;;12.77;4.45;;;;;;;17.49;74.40;101243.56;5043438;28;20040;-85
2021/08/14 09:48:41;;;;;;;10.98;4.22;;;;;;;17.45;74.18;101242.69;5043768;28;20147;-85
2021/08/14 09:51:28;;;;;;;12.82;4.10;;;;;;;17.47;73.61;101239.53;5061768;28;20458;-87
2021/08/14 09:53:57;;;;;;;16.05;4.30;;;;;;;17.49;73.59;101237.16;5058607;28;20040;-86
2021/08/14 09:56:27;;;;;;;11.90;4.30;;;;;;;17.41;73.56;101230.66;5041950;28;20048;-86
2021/08/14 09:59:00;;;;;;;12.70;3.92;;;;;;;17.31;73.59;101236.91;5059592;28;20484;-84
2021/08/14 10:01:29;;;;;;;8.90;3.78;;;;;;;17.30;73.54;101229.69;5060271;28;20047;-85
2021/08/14 10:03:57;;;;;;;14.63;4.00;;;;;;;17.32;73.85;101241.31;5061910;28;20036;-84
2021/08/14 10:06:26;;;;;;;10.18;4.93;;;;;;;17.39;73.98;101238.63;5044473;28;20036;-85
2021/08/14 10:08:53;;;;;;;14.35;4.80;;;;;;;17.48;74.04;101252.31;5062467;28;20090;-84
2021/08/14 10:11:20;;;;;;;14.68;4.28;;;;;;;17.49;73.94;101249.16;5062502;28;20488;-84
2021/08/14 10:13:47;;;;;;;17.40;5.00;;;;;;;17.57;73.71;101258.50;5063954;28;20089;-82
2021/08/14 10:16:15;;;;;;;14.65;4.85;;;;;;;17.67;73.53;101251.41;5047017;28;20110;-90
2021/08/14 10:18:44;;;;;;;12.85;4.25;;;;;;;17.79;73.52;101251.16;5066875;28;20128;-91
2021/08/14 10:21:14;;;;;;;9.23;3.70;;;;;;;17.92;73.34;101260.94;5049843;28;20396;-90
2021/08/14 10:23:43;;;;;;;15.73;5.00;;;;;;;18.03;73.30;101256.25;5068457;28;20119;-92
2021/08/14 10:26:14;;;;;;;10.80;4.30;;;;;;;18.05;73.06;101251.06;5071651;28;20052;-92
2021/08/14 10:28:44;;;;;;;13.97;4.13;;;;;;;18.05;73.14;101251.88;5069245;28;20058;-90
2021/08/14 10:31:29;;;;;;;12.38;5.05;;;;;;;18.02;72.98;101243.44;5050933;28;20079;-87
2021/08/14 10:33:57;;;;;;;13.38;4.55;;;;;;;18.01;73.04;101244.59;5061294;28;20036;-88
2021/08/14 10:36:27;;;;;;;11.10;4.40;;;;;;;17.98;73.22;101236.97;5068197;28;20063;-84
2021/08/14 10:38:54;;;;;;;10.55;3.47;;;;;;;17.94;73.09;101239.75;5068085;28;20040;-87
2021/08/14 10:41:37;;;;;;;12.63;4.38;;;;;;;17.91;72.47;101237.69;5051863;28;20033;-92
2021/08/14 10:44:04;;;;;;;12.23;3.40;;;;;;;17.98;72.48;101236.97;5051579;28;20135;-86
2021/08/14 10:46:31;;;;;;;10.35;3.95;;;;;;;18.06;72.17;101230.25;5067974;28;20050;-93
2021/08/14 10:48:59;;;;;;;19.77;5.90;;;;;;;18.09;72.24;101233.09;5052391;28;20059;-89
2021/08/14 10:51:51;;;;;;;13.35;4.53;;;;;;;18.12;72.19;101242.72;5068791;28;20063;-92
2021/08/14 10:54:30;;;;;;;14.15;4.75;;;;;;;18.10;72.45;101239.50;5033938;28;20131;-94
2021/08/14 10:56:59;;;;;;;14.68;4.97;;;;;;;18.02;72.34;101238.63;5066865;28;20123;-92
2021/08/14 10:59:35;;;;;;;16.75;4.47;;;;;;;18.01;72.70;101242.59;5065874;28;20047;-93
2021/08/14 11:04:53;;;;;;;9.70;3.85;;;;;;;17.89;72.24;101228.06;5066426;28;20068;-89
2021/08/14 11:07:22;;;;;;;8.27;3.05;;;;;;;17.91;72.39;101232.09;5034535;28;20055;-88
2021/08/14 11:09:52;;;;;;;9.52;3.95;;;;;;;17.95;72.35;101230.13;5049645;28;20142;-89
2021/08/14 11:12:42;;;;;;;8.45;3.03;;;;;;;17.97;72.03;101235.38;5049679;28;20108;-86
2021/08/14 11:15:24;;;;;;;9.95;3.05;;;;;;;18.08;71.96;101241.91;5065313;28;20048;-86
2021/08/14 11:17:53;;;;;;;10.07;3.33;;;;;;;18.22;71.61;101242.03;5050528;28;20041;-85
2021/08/14 11:20:20;;;;;;;13.43;5.45;;;;;;;18.29;71.51;101244.91;5065821;28;20068;-87
2021/08/14 11:22:58;;;;;;;17.00;4.72;;;;;;;18.22;71.61;101234.44;5048949;28;20034;-82
2021/08/14 11:25:40;;;;;;;15.50;5.07;;;;;;;18.06;71.76;101239.47;5063887;28;20400;-89
2021/08/14 11:28:09;;;;;;;11.93;3.83;;;;;;;17.87;71.65;101241.66;5049465;28;20071;-86